sensor_id;sensor_type;location;lat;lon;timestamp;P1;durP1;ratioP1;P2;durP2;ratioP2
52590;SDS011;38483;42.620;25.394;2022-12-29T00:00:10;29.33;;;19.43;;
52590;SDS011;38483;42.620;25.394;2022-12-29T00:02:40;29.33;;;19.37;;
52590;SDS011;38483;42.620;25.394;2022-12-29T00:05:08;32.13;;;20.10;;
52590;SDS011;38483;42.620;25.394;2022-12-29T00:07:35;27.40;;;19.17;;
52590;SDS011;38483;42.620;25.394;2022-12-29T00:10:03;31.77;;;19.03;;
52590;SDS011;38483;42.620;25.394;2022-12-29T00:12:30;32.20;;;19.73;;
52590;SDS011;38483;42.620;25.394;2022-12-29T00:15:17;30.77;;;18.97;;
52590;SDS011;38483;42.620;25.394;2022-12-29T00:18:03;28.67;;;19.37;;
52590;SDS011;38483;42.620;25.394;2022-12-29T00:20:32;28.63;;;19.73;;
52590;SDS011;38483;42.620;25.394;2022-12-29T00:23:19;28.07;;;18.80;;
52590;SDS011;38483;42.620;25.394;2022-12-29T00:26:08;33.20;;;21.40;;
52590;SDS011;38483;42.620;25.394;2022-12-29T00:28:58;33.80;;;20.37;;
52590;SDS011;38483;42.620;25.394;2022-12-29T00:31:44;34.27;;;20.50;;
52590;SDS011;38483;42.620;25.394;2022-12-29T00:34:29;37.80;;;19.90;;
52590;SDS011;38483;42.620;25.394;2022-12-29T00:37:15;38.57;;;21.07;;
52590;SDS011;38483;42.620;25.394;2022-12-29T00:39:43;38.50;;;20.93;;
52590;SDS011;38483;42.620;25.394;2022-12-29T00:42:30;33.20;;;19.10;;
52590;SDS011;38483;42.620;25.394;2022-12-29T00:45:15;32.13;;;20.30;;
52590;SDS011;38483;42.620;25.394;2022-12-29T00:47:43;39.43;;;21.33;;
52590;SDS011;38483;42.620;25.394;2022-12-29T00:50:10;34.07;;;19.60;;
52590;SDS011;38483;42.620;25.394;2022-12-29T00:52:37;36.33;;;21.30;;
52590;SDS011;38483;42.620;25.394;2022-12-29T00:55:04;31.60;;;19.40;;
52590;SDS011;38483;42.620;25.394;2022-12-29T00:57:31;29.13;;;18.03;;
52590;SDS011;38483;42.620;25.394;2022-12-29T00:59:58;32.03;;;19.77;;
52590;SDS011;38483;42.620;25.394;2022-12-29T01:02:25;32.73;;;20.63;;
52590;SDS011;38483;42.620;25.394;2022-12-29T01:04:52;34.47;;;21.37;;
52590;SDS011;38483;42.620;25.394;2022-12-29T01:07:19;30.93;;;20.57;;
52590;SDS011;38483;42.620;25.394;2022-12-29T01:09:46;30.23;;;18.77;;
52590;SDS011;38483;42.620;25.394;2022-12-29T01:12:32;28.23;;;17.10;;
52590;SDS011;38483;42.620;25.394;2022-12-29T01:15:11;24.63;;;15.63;;
52590;SDS011;38483;42.620;25.394;2022-12-29T01:17:40;21.13;;;14.40;;
52590;SDS011;38483;42.620;25.394;2022-12-29T01:20:08;22.90;;;14.50;;
52590;SDS011;38483;42.620;25.394;2022-12-29T01:22:36;22.67;;;14.60;;
52590;SDS011;38483;42.620;25.394;2022-12-29T01:25:03;21.50;;;15.03;;
52590;SDS011;38483;42.620;25.394;2022-12-29T01:27:30;22.30;;;14.57;;
52590;SDS011;38483;42.620;25.394;2022-12-29T01:29:58;25.13;;;15.33;;
52590;SDS011;38483;42.620;25.394;2022-12-29T01:32:25;22.03;;;15.07;;
52590;SDS011;38483;42.620;25.394;2022-12-29T01:34:51;25.07;;;16.30;;
52590;SDS011;38483;42.620;25.394;2022-12-29T01:37:18;24.13;;;14.77;;
52590;SDS011;38483;42.620;25.394;2022-12-29T01:39:45;23.23;;;15.03;;
52590;SDS011;38483;42.620;25.394;2022-12-29T01:42:16;23.17;;;15.00;;
52590;SDS011;38483;42.620;25.394;2022-12-29T01:44:57;22.30;;;14.90;;
52590;SDS011;38483;42.620;25.394;2022-12-29T01:47:48;25.67;;;15.70;;
52590;SDS011;38483;42.620;25.394;2022-12-29T01:50:36;22.80;;;14.97;;
52590;SDS011;38483;42.620;25.394;2022-12-29T01:53:11;25.77;;;16.63;;
52590;SDS011;38483;42.620;25.394;2022-12-29T01:55:49;26.03;;;16.17;;
52590;SDS011;38483;42.620;25.394;2022-12-29T01:58:26;21.17;;;14.63;;
52590;SDS011;38483;42.620;25.394;2022-12-29T02:00:58;28.87;;;16.50;;
52590;SDS011;38483;42.620;25.394;2022-12-29T02:03:26;22.90;;;15.07;;
52590;SDS011;38483;42.620;25.394;2022-12-29T02:06:02;26.60;;;16.00;;
52590;SDS011;38483;42.620;25.394;2022-12-29T02:08:37;23.27;;;15.47;;
52590;SDS011;38483;42.620;25.394;2022-12-29T02:11:05;23.47;;;15.40;;
52590;SDS011;38483;42.620;25.394;2022-12-29T02:13:33;25.00;;;16.73;;
52590;SDS011;38483;42.620;25.394;2022-12-29T02:32:11;20.63;;;14.17;;
52590;SDS011;38483;42.620;25.394;2022-12-29T02:40:21;22.30;;;14.87;;
52590;SDS011;38483;42.620;25.394;2022-12-29T02:43:02;22.27;;;15.00;;
52590;SDS011;38483;42.620;25.394;2022-12-29T02:45:48;26.07;;;15.50;;
52590;SDS011;38483;42.620;25.394;2022-12-29T02:48:37;24.87;;;15.43;;
52590;SDS011;38483;42.620;25.394;2022-12-29T02:51:16;24.63;;;15.77;;
52590;SDS011;38483;42.620;25.394;2022-12-29T02:53:47;25.93;;;17.07;;
52590;SDS011;38483;42.620;25.394;2022-12-29T02:56:33;24.50;;;16.50;;
52590;SDS011;38483;42.620;25.394;2022-12-29T02:59:01;24.23;;;16.43;;
52590;SDS011;38483;42.620;25.394;2022-12-29T03:04:36;24.23;;;15.30;;
52590;SDS011;38483;42.620;25.394;2022-12-29T03:07:23;24.10;;;15.37;;
52590;SDS011;38483;42.620;25.394;2022-12-29T03:10:41;22.20;;;14.93;;
52590;SDS011;38483;42.620;25.394;2022-12-29T03:13:02;24.70;;;16.23;;
52590;SDS011;38483;42.620;25.394;2022-12-29T03:16:04;26.83;;;17.60;;
52590;SDS011;38483;42.620;25.394;2022-12-29T03:18:56;32.17;;;18.53;;
52590;SDS011;38483;42.620;25.394;2022-12-29T03:24:18;28.03;;;17.37;;
52590;SDS011;38483;42.620;25.394;2022-12-29T03:26:50;27.57;;;17.40;;
52590;SDS011;38483;42.620;25.394;2022-12-29T03:29:22;28.97;;;18.50;;
52590;SDS011;38483;42.620;25.394;2022-12-29T03:31:50;27.30;;;18.73;;
52590;SDS011;38483;42.620;25.394;2022-12-29T03:34:20;24.80;;;17.40;;
52590;SDS011;38483;42.620;25.394;2022-12-29T03:36:50;30.43;;;21.03;;
52590;SDS011;38483;42.620;25.394;2022-12-29T03:39:21;33.03;;;20.73;;
52590;SDS011;38483;42.620;25.394;2022-12-29T03:41:51;40.70;;;25.23;;
52590;SDS011;38483;42.620;25.394;2022-12-29T03:44:31;35.43;;;22.73;;
52590;SDS011;38483;42.620;25.394;2022-12-29T03:47:03;39.30;;;21.80;;
52590;SDS011;38483;42.620;25.394;2022-12-29T03:49:30;31.73;;;20.23;;
52590;SDS011;38483;42.620;25.394;2022-12-29T03:51:57;31.47;;;20.30;;
52590;SDS011;38483;42.620;25.394;2022-12-29T03:54:25;30.57;;;18.70;;
52590;SDS011;38483;42.620;25.394;2022-12-29T03:56:52;30.70;;;19.03;;
52590;SDS011;38483;42.620;25.394;2022-12-29T03:59:30;27.93;;;18.13;;
52590;SDS011;38483;42.620;25.394;2022-12-29T04:01:56;25.47;;;18.07;;
52590;SDS011;38483;42.620;25.394;2022-12-29T04:04:24;31.30;;;18.17;;
52590;SDS011;38483;42.620;25.394;2022-12-29T04:06:51;31.27;;;18.13;;
52590;SDS011;38483;42.620;25.394;2022-12-29T04:09:18;27.50;;;18.00;;
52590;SDS011;38483;42.620;25.394;2022-12-29T04:11:47;28.70;;;18.67;;
52590;SDS011;38483;42.620;25.394;2022-12-29T04:14:14;30.80;;;20.03;;
52590;SDS011;38483;42.620;25.394;2022-12-29T04:16:43;30.90;;;19.93;;
52590;SDS011;38483;42.620;25.394;2022-12-29T04:19:10;29.77;;;20.07;;
52590;SDS011;38483;42.620;25.394;2022-12-29T04:21:37;32.57;;;19.27;;
52590;SDS011;38483;42.620;25.394;2022-12-29T04:24:05;31.43;;;18.53;;
52590;SDS011;38483;42.620;25.394;2022-12-29T04:26:39;30.33;;;20.57;;
52590;SDS011;38483;42.620;25.394;2022-12-29T04:29:42;32.27;;;19.17;;
52590;SDS011;38483;42.620;25.394;2022-12-29T04:32:29;31.43;;;19.43;;
52590;SDS011;38483;42.620;25.394;2022-12-29T04:34:56;40.43;;;20.97;;
52590;SDS011;38483;42.620;25.394;2022-12-29T04:37:23;32.83;;;19.47;;
52590;SDS011;38483;42.620;25.394;2022-12-29T04:39:51;30.73;;;19.27;;
52590;SDS011;38483;42.620;25.394;2022-12-29T04:42:18;30.23;;;17.97;;
52590;SDS011;38483;42.620;25.394;2022-12-29T04:44:45;29.43;;;18.17;;
52590;SDS011;38483;42.620;25.394;2022-12-29T04:47:19;27.47;;;17.43;;
52590;SDS011;38483;42.620;25.394;2022-12-29T04:49:53;26.33;;;18.00;;
52590;SDS011;38483;42.620;25.394;2022-12-29T04:52:32;26.50;;;17.10;;
52590;SDS011;38483;42.620;25.394;2022-12-29T04:55:00;28.00;;;17.77;;
52590;SDS011;38483;42.620;25.394;2022-12-29T04:57:28;31.03;;;17.63;;
52590;SDS011;38483;42.620;25.394;2022-12-29T04:59:58;29.27;;;17.53;;
52590;SDS011;38483;42.620;25.394;2022-12-29T05:02:25;33.10;;;16.97;;
52590;SDS011;38483;42.620;25.394;2022-12-29T05:04:54;26.90;;;16.60;;
52590;SDS011;38483;42.620;25.394;2022-12-29T05:07:22;25.40;;;15.97;;
52590;SDS011;38483;42.620;25.394;2022-12-29T05:09:50;21.13;;;15.53;;
52590;SDS011;38483;42.620;25.394;2022-12-29T05:12:17;21.33;;;14.03;;
52590;SDS011;38483;42.620;25.394;2022-12-29T05:14:53;21.27;;;15.03;;
52590;SDS011;38483;42.620;25.394;2022-12-29T05:20:44;24.80;;;15.27;;
52590;SDS011;38483;42.620;25.394;2022-12-29T05:23:11;25.83;;;16.53;;
52590;SDS011;38483;42.620;25.394;2022-12-29T05:25:40;26.47;;;16.53;;
52590;SDS011;38483;42.620;25.394;2022-12-29T05:28:14;27.90;;;15.97;;
52590;SDS011;38483;42.620;25.394;2022-12-29T05:31:06;27.77;;;17.37;;
52590;SDS011;38483;42.620;25.394;2022-12-29T05:33:33;23.33;;;15.73;;
52590;SDS011;38483;42.620;25.394;2022-12-29T05:36:05;25.00;;;15.53;;
52590;SDS011;38483;42.620;25.394;2022-12-29T05:38:35;27.17;;;17.30;;
52590;SDS011;38483;42.620;25.394;2022-12-29T05:41:02;29.93;;;17.03;;
52590;SDS011;38483;42.620;25.394;2022-12-29T05:43:41;29.00;;;17.93;;
52590;SDS011;38483;42.620;25.394;2022-12-29T05:46:37;27.20;;;16.93;;
52590;SDS011;38483;42.620;25.394;2022-12-29T05:49:07;29.00;;;17.20;;
52590;SDS011;38483;42.620;25.394;2022-12-29T05:55:11;30.70;;;18.27;;
52590;SDS011;38483;42.620;25.394;2022-12-29T05:57:39;33.40;;;19.83;;
52590;SDS011;38483;42.620;25.394;2022-12-29T06:00:10;34.33;;;18.10;;
52590;SDS011;38483;42.620;25.394;2022-12-29T06:02:41;30.80;;;17.57;;
52590;SDS011;38483;42.620;25.394;2022-12-29T06:05:09;28.37;;;16.80;;
52590;SDS011;38483;42.620;25.394;2022-12-29T06:07:37;26.83;;;15.73;;
52590;SDS011;38483;42.620;25.394;2022-12-29T06:10:05;29.90;;;19.13;;
52590;SDS011;38483;42.620;25.394;2022-12-29T06:12:41;33.77;;;20.93;;
52590;SDS011;38483;42.620;25.394;2022-12-29T06:15:09;43.27;;;22.93;;
52590;SDS011;38483;42.620;25.394;2022-12-29T06:17:38;39.00;;;22.03;;
52590;SDS011;38483;42.620;25.394;2022-12-29T06:20:06;37.67;;;24.97;;
52590;SDS011;38483;42.620;25.394;2022-12-29T06:22:34;71.73;;;38.87;;
52590;SDS011;38483;42.620;25.394;2022-12-29T06:25:01;50.17;;;28.43;;
52590;SDS011;38483;42.620;25.394;2022-12-29T06:27:32;44.43;;;27.17;;
52590;SDS011;38483;42.620;25.394;2022-12-29T06:30:00;48.27;;;26.53;;
52590;SDS011;38483;42.620;25.394;2022-12-29T06:32:30;36.40;;;22.30;;
52590;SDS011;38483;42.620;25.394;2022-12-29T06:35:03;32.70;;;20.33;;
52590;SDS011;38483;42.620;25.394;2022-12-29T06:37:37;44.57;;;21.40;;
52590;SDS011;38483;42.620;25.394;2022-12-29T06:40:04;38.43;;;24.57;;
52590;SDS011;38483;42.620;25.394;2022-12-29T06:42:45;45.67;;;27.07;;
52590;SDS011;38483;42.620;25.394;2022-12-29T06:45:32;41.97;;;26.67;;
52590;SDS011;38483;42.620;25.394;2022-12-29T06:47:59;55.23;;;29.07;;
52590;SDS011;38483;42.620;25.394;2022-12-29T06:50:26;45.30;;;28.67;;
52590;SDS011;38483;42.620;25.394;2022-12-29T06:52:54;48.27;;;28.73;;
52590;SDS011;38483;42.620;25.394;2022-12-29T06:55:20;44.80;;;28.03;;
52590;SDS011;38483;42.620;25.394;2022-12-29T06:57:48;40.00;;;23.10;;
52590;SDS011;38483;42.620;25.394;2022-12-29T07:00:15;38.80;;;24.30;;
52590;SDS011;38483;42.620;25.394;2022-12-29T07:02:48;31.93;;;22.63;;
52590;SDS011;38483;42.620;25.394;2022-12-29T07:05:15;35.57;;;21.47;;
52590;SDS011;38483;42.620;25.394;2022-12-29T07:07:42;32.10;;;20.57;;
52590;SDS011;38483;42.620;25.394;2022-12-29T07:10:10;30.63;;;20.10;;
52590;SDS011;38483;42.620;25.394;2022-12-29T07:12:37;30.27;;;20.00;;
52590;SDS011;38483;42.620;25.394;2022-12-29T07:15:04;32.63;;;19.83;;
52590;SDS011;38483;42.620;25.394;2022-12-29T07:17:31;30.30;;;18.40;;
52590;SDS011;38483;42.620;25.394;2022-12-29T07:19:58;29.90;;;19.00;;
52590;SDS011;38483;42.620;25.394;2022-12-29T07:22:25;28.47;;;17.83;;
52590;SDS011;38483;42.620;25.394;2022-12-29T07:24:52;27.53;;;17.90;;
52590;SDS011;38483;42.620;25.394;2022-12-29T07:27:19;24.67;;;16.43;;
52590;SDS011;38483;42.620;25.394;2022-12-29T07:29:45;29.77;;;17.70;;
52590;SDS011;38483;42.620;25.394;2022-12-29T07:32:12;23.40;;;15.90;;
52590;SDS011;38483;42.620;25.394;2022-12-29T07:34:39;25.67;;;16.47;;
52590;SDS011;38483;42.620;25.394;2022-12-29T07:37:06;25.23;;;15.77;;
52590;SDS011;38483;42.620;25.394;2022-12-29T07:39:33;24.83;;;15.50;;
52590;SDS011;38483;42.620;25.394;2022-12-29T07:42:00;23.90;;;14.90;;
52590;SDS011;38483;42.620;25.394;2022-12-29T07:44:37;23.90;;;14.40;;
52590;SDS011;38483;42.620;25.394;2022-12-29T07:47:23;22.10;;;14.30;;
52590;SDS011;38483;42.620;25.394;2022-12-29T07:49:50;21.63;;;14.37;;
52590;SDS011;38483;42.620;25.394;2022-12-29T07:52:17;23.07;;;14.30;;
52590;SDS011;38483;42.620;25.394;2022-12-29T07:54:44;20.60;;;14.67;;
52590;SDS011;38483;42.620;25.394;2022-12-29T07:57:11;22.33;;;13.50;;
52590;SDS011;38483;42.620;25.394;2022-12-29T07:59:38;24.10;;;15.10;;
52590;SDS011;38483;42.620;25.394;2022-12-29T08:02:06;18.23;;;12.27;;
52590;SDS011;38483;42.620;25.394;2022-12-29T08:04:36;18.23;;;13.37;;
52590;SDS011;38483;42.620;25.394;2022-12-29T08:07:03;20.63;;;13.93;;
52590;SDS011;38483;42.620;25.394;2022-12-29T08:09:30;18.97;;;12.10;;
52590;SDS011;38483;42.620;25.394;2022-12-29T08:11:57;20.50;;;12.30;;
52590;SDS011;38483;42.620;25.394;2022-12-29T08:14:24;18.90;;;11.13;;
52590;SDS011;38483;42.620;25.394;2022-12-29T08:16:51;15.17;;;10.20;;
52590;SDS011;38483;42.620;25.394;2022-12-29T08:19:18;20.27;;;14.03;;
52590;SDS011;38483;42.620;25.394;2022-12-29T08:21:45;23.93;;;14.73;;
52590;SDS011;38483;42.620;25.394;2022-12-29T08:24:12;26.70;;;14.43;;
52590;SDS011;38483;42.620;25.394;2022-12-29T08:26:39;27.57;;;16.80;;
52590;SDS011;38483;42.620;25.394;2022-12-29T08:29:06;32.50;;;17.90;;
52590;SDS011;38483;42.620;25.394;2022-12-29T08:31:32;26.73;;;16.07;;
52590;SDS011;38483;42.620;25.394;2022-12-29T08:33:59;23.93;;;14.43;;
52590;SDS011;38483;42.620;25.394;2022-12-29T08:36:28;22.40;;;13.47;;
52590;SDS011;38483;42.620;25.394;2022-12-29T08:38:55;19.03;;;11.40;;
52590;SDS011;38483;42.620;25.394;2022-12-29T08:41:22;16.93;;;11.50;;
52590;SDS011;38483;42.620;25.394;2022-12-29T08:43:49;21.43;;;13.00;;
52590;SDS011;38483;42.620;25.394;2022-12-29T08:46:19;18.27;;;11.67;;
52590;SDS011;38483;42.620;25.394;2022-12-29T08:48:46;22.80;;;13.57;;
52590;SDS011;38483;42.620;25.394;2022-12-29T08:51:13;19.87;;;12.20;;
52590;SDS011;38483;42.620;25.394;2022-12-29T08:53:40;18.67;;;12.07;;
52590;SDS011;38483;42.620;25.394;2022-12-29T08:56:08;19.67;;;13.73;;
52590;SDS011;38483;42.620;25.394;2022-12-29T08:58:44;17.03;;;11.53;;
52590;SDS011;38483;42.620;25.394;2022-12-29T09:01:11;19.53;;;12.67;;
52590;SDS011;38483;42.620;25.394;2022-12-29T09:03:38;22.77;;;14.97;;
52590;SDS011;38483;42.620;25.394;2022-12-29T09:06:25;24.17;;;13.50;;
52590;SDS011;38483;42.620;25.394;2022-12-29T09:08:53;24.53;;;17.37;;
52590;SDS011;38483;42.620;25.394;2022-12-29T09:11:22;22.27;;;15.83;;
52590;SDS011;38483;42.620;25.394;2022-12-29T09:13:51;20.10;;;13.57;;
52590;SDS011;38483;42.620;25.394;2022-12-29T09:16:20;24.03;;;15.30;;
52590;SDS011;38483;42.620;25.394;2022-12-29T09:18:49;21.40;;;13.13;;
52590;SDS011;38483;42.620;25.394;2022-12-29T09:21:17;19.93;;;12.53;;
52590;SDS011;38483;42.620;25.394;2022-12-29T09:23:44;16.33;;;11.57;;
52590;SDS011;38483;42.620;25.394;2022-12-29T09:26:11;20.30;;;13.17;;
52590;SDS011;38483;42.620;25.394;2022-12-29T09:28:38;21.63;;;12.87;;
52590;SDS011;38483;42.620;25.394;2022-12-29T09:31:05;15.57;;;10.57;;
52590;SDS011;38483;42.620;25.394;2022-12-29T09:33:32;15.50;;;11.07;;
52590;SDS011;38483;42.620;25.394;2022-12-29T09:36:02;18.67;;;12.10;;
52590;SDS011;38483;42.620;25.394;2022-12-29T09:38:30;16.60;;;10.70;;
52590;SDS011;38483;42.620;25.394;2022-12-29T09:41:41;14.63;;;11.37;;
52590;SDS011;38483;42.620;25.394;2022-12-29T09:43:59;18.50;;;11.20;;
52590;SDS011;38483;42.620;25.394;2022-12-29T09:46:37;21.50;;;13.70;;
52590;SDS011;38483;42.620;25.394;2022-12-29T09:49:29;18.83;;;12.10;;
52590;SDS011;38483;42.620;25.394;2022-12-29T09:52:18;17.53;;;10.70;;
52590;SDS011;38483;42.620;25.394;2022-12-29T09:55:34;16.27;;;11.43;;
52590;SDS011;38483;42.620;25.394;2022-12-29T10:00:22;16.47;;;9.80;;
52590;SDS011;38483;42.620;25.394;2022-12-29T10:03:06;17.47;;;10.33;;
52590;SDS011;38483;42.620;25.394;2022-12-29T10:10:56;13.30;;;9.87;;
52590;SDS011;38483;42.620;25.394;2022-12-29T10:25:08;13.83;;;10.07;;
52590;SDS011;38483;42.620;25.394;2022-12-29T10:27:47;17.60;;;12.00;;
52590;SDS011;38483;42.620;25.394;2022-12-29T10:30:15;15.27;;;10.63;;
52590;SDS011;38483;42.620;25.394;2022-12-29T10:32:54;15.17;;;11.07;;
52590;SDS011;38483;42.620;25.394;2022-12-29T10:35:37;16.57;;;11.33;;
52590;SDS011;38483;42.620;25.394;2022-12-29T10:40:40;15.33;;;10.67;;
52590;SDS011;38483;42.620;25.394;2022-12-29T10:45:52;10.83;;;7.87;;
52590;SDS011;38483;42.620;25.394;2022-12-29T10:48:28;10.97;;;7.97;;
52590;SDS011;38483;42.620;25.394;2022-12-29T10:50:59;15.33;;;10.50;;
52590;SDS011;38483;42.620;25.394;2022-12-29T10:53:35;15.63;;;10.57;;
52590;SDS011;38483;42.620;25.394;2022-12-29T10:56:54;12.90;;;8.83;;
52590;SDS011;38483;42.620;25.394;2022-12-29T11:00:21;11.17;;;8.73;;
52590;SDS011;38483;42.620;25.394;2022-12-29T11:02:56;17.37;;;11.30;;
52590;SDS011;38483;42.620;25.394;2022-12-29T11:05:53;17.30;;;10.10;;
52590;SDS011;38483;42.620;25.394;2022-12-29T11:08:24;18.37;;;10.17;;
52590;SDS011;38483;42.620;25.394;2022-12-29T11:11:01;14.57;;;10.03;;
52590;SDS011;38483;42.620;25.394;2022-12-29T11:13:30;15.57;;;10.63;;
52590;SDS011;38483;42.620;25.394;2022-12-29T11:16:05;15.77;;;11.70;;
52590;SDS011;38483;42.620;25.394;2022-12-29T11:18:33;11.70;;;8.63;;
52590;SDS011;38483;42.620;25.394;2022-12-29T11:21:23;13.20;;;11.23;;
52590;SDS011;38483;42.620;25.394;2022-12-29T11:24:01;13.30;;;9.77;;
52590;SDS011;38483;42.620;25.394;2022-12-29T11:26:30;13.40;;;10.33;;
52590;SDS011;38483;42.620;25.394;2022-12-29T11:31:43;11.40;;;8.40;;
52590;SDS011;38483;42.620;25.394;2022-12-29T11:34:22;13.33;;;9.93;;
52590;SDS011;38483;42.620;25.394;2022-12-29T11:37:00;17.37;;;11.20;;
52590;SDS011;38483;42.620;25.394;2022-12-29T11:39:34;16.07;;;11.60;;
52590;SDS011;38483;42.620;25.394;2022-12-29T11:42:06;17.30;;;11.27;;
52590;SDS011;38483;42.620;25.394;2022-12-29T11:44:42;12.57;;;9.33;;
52590;SDS011;38483;42.620;25.394;2022-12-29T11:47:19;11.60;;;7.83;;
52590;SDS011;38483;42.620;25.394;2022-12-29T11:49:52;13.50;;;8.60;;
52590;SDS011;38483;42.620;25.394;2022-12-29T11:52:26;10.83;;;7.67;;
52590;SDS011;38483;42.620;25.394;2022-12-29T11:54:59;9.27;;;7.37;;
52590;SDS011;38483;42.620;25.394;2022-12-29T11:57:28;11.07;;;8.03;;
52590;SDS011;38483;42.620;25.394;2022-12-29T11:59:57;13.47;;;8.73;;
52590;SDS011;38483;42.620;25.394;2022-12-29T12:05:20;12.73;;;9.67;;
52590;SDS011;38483;42.620;25.394;2022-12-29T12:07:59;10.67;;;8.63;;
52590;SDS011;38483;42.620;25.394;2022-12-29T12:16:07;16.20;;;9.73;;
52590;SDS011;38483;42.620;25.394;2022-12-29T12:24:00;12.73;;;9.43;;
52590;SDS011;38483;42.620;25.394;2022-12-29T12:26:37;15.90;;;9.70;;
52590;SDS011;38483;42.620;25.394;2022-12-29T12:29:28;14.53;;;9.03;;
52590;SDS011;38483;42.620;25.394;2022-12-29T12:32:15;14.17;;;9.40;;
52590;SDS011;38483;42.620;25.394;2022-12-29T12:34:47;8.80;;;7.23;;
52590;SDS011;38483;42.620;25.394;2022-12-29T12:37:22;10.70;;;7.30;;
52590;SDS011;38483;42.620;25.394;2022-12-29T12:50:45;11.67;;;8.20;;
52590;SDS011;38483;42.620;25.394;2022-12-29T12:54:18;16.93;;;9.60;;
52590;SDS011;38483;42.620;25.394;2022-12-29T13:04:08;9.80;;;7.20;;
52590;SDS011;38483;42.620;25.394;2022-12-29T13:20:46;10.43;;;7.23;;
52590;SDS011;38483;42.620;25.394;2022-12-29T13:23:39;11.57;;;7.30;;
52590;SDS011;38483;42.620;25.394;2022-12-29T13:26:15;13.10;;;8.10;;
52590;SDS011;38483;42.620;25.394;2022-12-29T13:31:28;8.80;;;6.80;;
52590;SDS011;38483;42.620;25.394;2022-12-29T13:36:59;10.80;;;7.47;;
52590;SDS011;38483;42.620;25.394;2022-12-29T13:39:32;10.83;;;7.80;;
52590;SDS011;38483;42.620;25.394;2022-12-29T13:42:03;11.33;;;7.30;;
52590;SDS011;38483;42.620;25.394;2022-12-29T13:45:15;11.83;;;9.03;;
52590;SDS011;38483;42.620;25.394;2022-12-29T13:50:29;11.60;;;7.83;;
52590;SDS011;38483;42.620;25.394;2022-12-29T13:55:44;10.33;;;7.07;;
52590;SDS011;38483;42.620;25.394;2022-12-29T14:03:57;20.47;;;11.90;;
52590;SDS011;38483;42.620;25.394;2022-12-29T14:06:27;16.03;;;8.90;;
52590;SDS011;38483;42.620;25.394;2022-12-29T14:09:03;13.50;;;9.00;;
52590;SDS011;38483;42.620;25.394;2022-12-29T14:11:35;17.33;;;11.73;;
52590;SDS011;38483;42.620;25.394;2022-12-29T14:17:10;15.20;;;10.00;;
52590;SDS011;38483;42.620;25.394;2022-12-29T14:19:43;18.83;;;9.73;;
52590;SDS011;38483;42.620;25.394;2022-12-29T14:22:11;20.43;;;12.07;;
52590;SDS011;38483;42.620;25.394;2022-12-29T14:34:56;13.27;;;10.40;;
52590;SDS011;38483;42.620;25.394;2022-12-29T14:37:25;16.50;;;11.30;;
52590;SDS011;38483;42.620;25.394;2022-12-29T14:42:33;15.83;;;11.97;;
52590;SDS011;38483;42.620;25.394;2022-12-29T14:45:02;22.70;;;15.37;;
52590;SDS011;38483;42.620;25.394;2022-12-29T14:50:04;28.97;;;18.63;;
52590;SDS011;38483;42.620;25.394;2022-12-29T14:52:42;35.30;;;21.87;;
52590;SDS011;38483;42.620;25.394;2022-12-29T15:00:58;28.40;;;19.07;;
52590;SDS011;38483;42.620;25.394;2022-12-29T15:03:32;28.57;;;18.40;;
52590;SDS011;38483;42.620;25.394;2022-12-29T15:06:11;24.40;;;17.07;;
52590;SDS011;38483;42.620;25.394;2022-12-29T15:14:02;24.77;;;15.90;;
52590;SDS011;38483;42.620;25.394;2022-12-29T15:16:30;26.87;;;15.60;;
52590;SDS011;38483;42.620;25.394;2022-12-29T15:19:00;25.60;;;16.00;;
52590;SDS011;38483;42.620;25.394;2022-12-29T15:21:34;22.93;;;14.93;;
52590;SDS011;38483;42.620;25.394;2022-12-29T15:24:03;25.67;;;18.60;;
52590;SDS011;38483;42.620;25.394;2022-12-29T15:26:38;22.93;;;14.83;;
52590;SDS011;38483;42.620;25.394;2022-12-29T15:34:46;19.47;;;13.53;;
52590;SDS011;38483;42.620;25.394;2022-12-29T15:37:17;24.87;;;15.13;;
52590;SDS011;38483;42.620;25.394;2022-12-29T15:39:49;20.63;;;14.17;;
52590;SDS011;38483;42.620;25.394;2022-12-29T15:44:58;22.17;;;14.87;;
52590;SDS011;38483;42.620;25.394;2022-12-29T15:47:36;26.17;;;15.60;;
52590;SDS011;38483;42.620;25.394;2022-12-29T15:50:06;22.27;;;13.93;;
52590;SDS011;38483;42.620;25.394;2022-12-29T15:52:59;22.93;;;14.27;;
52590;SDS011;38483;42.620;25.394;2022-12-29T15:55:35;24.27;;;15.53;;
52590;SDS011;38483;42.620;25.394;2022-12-29T15:58:06;25.93;;;16.97;;
52590;SDS011;38483;42.620;25.394;2022-12-29T16:00:54;29.40;;;18.33;;
52590;SDS011;38483;42.620;25.394;2022-12-29T16:03:24;30.40;;;18.00;;
52590;SDS011;38483;42.620;25.394;2022-12-29T16:05:58;28.73;;;16.67;;
52590;SDS011;38483;42.620;25.394;2022-12-29T16:08:37;26.63;;;17.83;;
52590;SDS011;38483;42.620;25.394;2022-12-29T16:11:23;30.47;;;17.10;;
52590;SDS011;38483;42.620;25.394;2022-12-29T16:13:57;26.80;;;17.00;;
52590;SDS011;38483;42.620;25.394;2022-12-29T16:16:25;29.33;;;19.53;;
52590;SDS011;38483;42.620;25.394;2022-12-29T16:18:55;32.90;;;20.27;;
52590;SDS011;38483;42.620;25.394;2022-12-29T16:21:32;31.10;;;21.13;;
52590;SDS011;38483;42.620;25.394;2022-12-29T16:24:05;31.97;;;21.33;;
52590;SDS011;38483;42.620;25.394;2022-12-29T16:26:38;41.20;;;27.53;;
52590;SDS011;38483;42.620;25.394;2022-12-29T16:29:06;41.13;;;25.80;;
52590;SDS011;38483;42.620;25.394;2022-12-29T16:31:35;47.47;;;28.17;;
52590;SDS011;38483;42.620;25.394;2022-12-29T16:36:55;59.00;;;33.30;;
52590;SDS011;38483;42.620;25.394;2022-12-29T16:39:38;46.60;;;31.43;;
52590;SDS011;38483;42.620;25.394;2022-12-29T16:50:35;58.67;;;37.43;;
52590;SDS011;38483;42.620;25.394;2022-12-29T16:53:05;60.33;;;37.47;;
52590;SDS011;38483;42.620;25.394;2022-12-29T16:55:34;50.80;;;31.07;;
52590;SDS011;38483;42.620;25.394;2022-12-29T16:58:01;49.33;;;29.97;;
52590;SDS011;38483;42.620;25.394;2022-12-29T17:00:29;52.77;;;33.80;;
52590;SDS011;38483;42.620;25.394;2022-12-29T17:03:02;58.33;;;33.53;;
52590;SDS011;38483;42.620;25.394;2022-12-29T17:05:30;48.30;;;29.67;;
52590;SDS011;38483;42.620;25.394;2022-12-29T17:07:57;49.93;;;29.40;;
52590;SDS011;38483;42.620;25.394;2022-12-29T17:10:27;47.73;;;29.17;;
52590;SDS011;38483;42.620;25.394;2022-12-29T17:13:14;39.67;;;25.17;;
52590;SDS011;38483;42.620;25.394;2022-12-29T17:15:41;40.17;;;24.23;;
52590;SDS011;38483;42.620;25.394;2022-12-29T17:18:08;39.90;;;26.30;;
52590;SDS011;38483;42.620;25.394;2022-12-29T17:20:39;40.87;;;26.23;;
52590;SDS011;38483;42.620;25.394;2022-12-29T17:23:12;37.27;;;23.13;;
52590;SDS011;38483;42.620;25.394;2022-12-29T17:25:48;40.87;;;25.30;;
52590;SDS011;38483;42.620;25.394;2022-12-29T17:28:19;34.47;;;22.37;;
52590;SDS011;38483;42.620;25.394;2022-12-29T17:30:49;26.60;;;18.77;;
52590;SDS011;38483;42.620;25.394;2022-12-29T17:33:19;35.60;;;19.80;;
52590;SDS011;38483;42.620;25.394;2022-12-29T17:35:46;30.83;;;21.10;;
52590;SDS011;38483;42.620;25.394;2022-12-29T17:40:50;31.60;;;19.93;;